createdAt,value
2023-03-24T00:00:10.457Z,32.8600
2023-03-24T00:00:21.493Z,32.8580
2023-03-24T00:00:32.540Z,32.8720
2023-03-24T00:00:43.939Z,32.8720
2023-03-24T00:00:55.249Z,32.9010
2023-03-24T00:01:06.297Z,32.8900
2023-03-24T00:01:17.372Z,32.8660
2023-03-24T00:01:28.445Z,32.8580
2023-03-24T00:01:39.487Z,32.8640
2023-03-24T00:01:50.552Z,32.8510
2023-03-24T00:02:01.647Z,32.8460
2023-03-24T00:02:12.745Z,32.8640
2023-03-24T00:02:23.858Z,32.8690
2023-03-24T00:02:35.036Z,32.8800
2023-03-24T00:02:46.207Z,32.8950
2023-03-24T00:02:57.329Z,32.9040
2023-03-24T00:03:08.440Z,32.9150
2023-03-24T00:03:19.662Z,32.9330
2023-03-24T00:03:31.016Z,32.9440
2023-03-24T00:03:42.329Z,32.9490
2023-03-24T00:03:53.559Z,32.9270
2023-03-24T00:04:04.720Z,32.9330
2023-03-24T00:04:15.807Z,32.9270
2023-03-24T00:04:26.898Z,32.9090
2023-03-24T00:04:37.982Z,32.8930
2023-03-24T00:04:49.113Z,32.9010
2023-03-24T00:05:00.183Z,32.8900
2023-03-24T00:05:11.230Z,32.8670
2023-03-24T00:05:22.376Z,32.8610
2023-03-24T00:05:33.422Z,32.8780
2023-03-24T00:05:44.456Z,32.8610
2023-03-24T00:05:55.509Z,32.8670
2023-03-24T00:06:06.575Z,32.8760
2023-03-24T00:06:17.640Z,32.8760
2023-03-24T00:06:28.669Z,32.8710
2023-03-24T00:06:39.703Z,32.8830
2023-03-24T00:06:50.743Z,32.8780
2023-03-24T00:07:01.826Z,32.8820
2023-03-24T00:07:12.878Z,32.8820
2023-03-24T00:07:25.234Z,32.8930
2023-03-24T00:07:36.532Z,32.9730
2023-03-24T00:07:47.562Z,32.9620
2023-03-24T00:08:12.676Z,33.0500
2023-03-24T00:08:23.741Z,33.0110
2023-03-24T00:08:35.878Z,32.9770
2023-03-24T00:08:47.568Z,33.0300
2023-03-24T00:08:58.610Z,32.9790
2023-03-24T00:09:09.656Z,32.9560
2023-03-24T00:09:20.730Z,32.9450
2023-03-24T00:09:31.803Z,32.9560
2023-03-24T00:09:42.835Z,32.9390
2023-03-24T00:09:53.897Z,32.9330
2023-03-24T00:10:04.946Z,32.9270
2023-03-24T00:10:15.976Z,32.9270
2023-03-24T00:10:27.040Z,32.9220
2023-03-24T00:10:38.085Z,32.9220
2023-03-24T00:10:49.163Z,32.9090
2023-03-24T00:11:00.215Z,32.9090
2023-03-24T00:11:11.289Z,32.9090
2023-03-24T00:11:22.353Z,32.8930
2023-03-24T00:11:33.410Z,32.9090
2023-03-24T00:11:44.471Z,32.9090
2023-03-24T00:11:55.576Z,32.9150
2023-03-24T00:12:06.617Z,32.9330
2023-03-24T00:12:17.681Z,32.9380
2023-03-24T00:12:28.748Z,32.9380
2023-03-24T00:12:39.797Z,32.9440
2023-03-24T00:12:50.904Z,32.9560
2023-03-24T00:13:01.951Z,32.9670
2023-03-24T00:13:13.081Z,32.9930
2023-03-24T00:13:24.158Z,32.9990
2023-03-24T00:13:35.226Z,33.0040
2023-03-24T00:13:46.267Z,33.0110
2023-03-24T00:13:57.307Z,33.0040
2023-03-24T00:14:08.335Z,32.9930
2023-03-24T00:14:19.387Z,32.9960
2023-03-24T00:14:30.458Z,32.9770
2023-03-24T00:14:41.513Z,32.9990
2023-03-24T00:14:52.555Z,33.0170
2023-03-24T00:15:03.600Z,33.0310
2023-03-24T00:15:14.683Z,33.0310
2023-03-24T00:15:25.720Z,33.0360
2023-03-24T00:15:36.775Z,33.0430
2023-03-24T00:15:47.917Z,33.0480
2023-03-24T00:15:58.984Z,33.0430
2023-03-24T00:16:10.106Z,33.0430
2023-03-24T00:16:21.171Z,33.0430
2023-03-24T00:16:32.198Z,33.0360
2023-03-24T00:16:43.253Z,33.0430
2023-03-24T00:16:54.304Z,33.0560
2023-03-24T00:17:05.374Z,33.0620
2023-03-24T00:17:16.433Z,33.0510
2023-03-24T00:17:27.500Z,33.0510
2023-03-24T00:17:38.566Z,33.0560
2023-03-24T00:17:49.693Z,33.0620
2023-03-24T00:18:00.751Z,33.0740
2023-03-24T00:18:11.795Z,33.0740
2023-03-24T00:18:22.855Z,33.0680
2023-03-24T00:18:33.913Z,33.0680
2023-03-24T00:18:44.952Z,33.0860
2023-03-24T00:18:56.026Z,33.0910
2023-03-24T00:19:07.115Z,33.1020
2023-03-24T00:19:18.178Z,33.0970
2023-03-24T00:19:29.231Z,33.1020
2023-03-24T00:19:40.276Z,33.0970
2023-03-24T00:19:51.339Z,33.0860
2023-03-24T00:20:02.386Z,33.0740
2023-03-24T00:20:13.615Z,33.0740
2023-03-24T00:20:24.663Z,33.0740
2023-03-24T00:20:35.694Z,33.0910
2023-03-24T00:20:47.073Z,33.0860
2023-03-24T00:20:58.484Z,33.0860
2023-03-24T00:21:09.540Z,33.0910
2023-03-24T00:21:20.594Z,33.0910
2023-03-24T00:21:31.639Z,33.0740
2023-03-24T00:21:42.695Z,33.0620
2023-03-24T00:21:53.743Z,33.0620
2023-03-24T00:22:04.773Z,33.0560
2023-03-24T00:22:15.850Z,33.0360
2023-03-24T00:22:26.904Z,33.0430
2023-03-24T00:22:37.986Z,33.0510
2023-03-24T00:22:49.038Z,33.0680
2023-03-24T00:23:00.093Z,33.0560
2023-03-24T00:23:11.144Z,33.0600
2023-03-24T00:23:22.209Z,33.0480
2023-03-24T00:23:33.241Z,33.0430
2023-03-24T00:23:44.296Z,33.0400
2023-03-24T00:23:55.378Z,33.0430
2023-03-24T00:24:06.453Z,33.0620
2023-03-24T00:24:17.503Z,33.0450
2023-03-24T00:24:28.568Z,33.0360
2023-03-24T00:24:39.644Z,33.0360
2023-03-24T00:24:50.703Z,33.0310
2023-03-24T00:25:01.766Z,33.0310
2023-03-24T00:25:12.815Z,33.0360
2023-03-24T00:25:23.841Z,33.0190
2023-03-24T00:25:34.883Z,33.0140
2023-03-24T00:25:45.937Z,33.0250
2023-03-24T00:25:56.993Z,33.0480
2023-03-24T00:26:08.042Z,33.0600
2023-03-24T00:26:19.086Z,33.0620
2023-03-24T00:26:30.152Z,33.0620
2023-03-24T00:26:41.216Z,33.0680
2023-03-24T00:26:52.243Z,33.0680
2023-03-24T00:27:03.330Z,33.0620
2023-03-24T00:27:14.352Z,33.0740
2023-03-24T00:27:25.424Z,33.0910
2023-03-24T00:27:36.509Z,33.1020
2023-03-24T00:27:47.572Z,33.1090
2023-03-24T00:27:58.624Z,33.1030
2023-03-24T00:28:09.684Z,33.1090
2023-03-24T00:28:20.721Z,33.1140
2023-03-24T00:28:31.771Z,33.1250
2023-03-24T00:28:42.807Z,33.1090
2023-03-24T00:28:53.873Z,33.0980
2023-03-24T00:29:04.895Z,33.1080
2023-03-24T00:29:15.950Z,33.1090
2023-03-24T00:29:26.994Z,33.1200
2023-03-24T00:29:38.055Z,33.1350
2023-03-24T00:29:49.114Z,33.1460
2023-03-24T00:30:00.181Z,33.1560
2023-03-24T00:30:11.214Z,33.1780
2023-03-24T00:30:22.300Z,33.1770
2023-03-24T00:30:33.345Z,33.1880
2023-03-24T00:30:44.646Z,33.1930
2023-03-24T00:30:55.963Z,33.1970
2023-03-24T00:31:07.003Z,33.1970
2023-03-24T00:31:18.087Z,33.1880
2023-03-24T00:31:29.134Z,33.1730
2023-03-24T00:31:40.531Z,33.1840
2023-03-24T00:31:51.941Z,33.1920
2023-03-24T00:32:03.008Z,33.1510
2023-03-24T00:32:14.064Z,33.1400
2023-03-24T00:32:25.132Z,33.1380
2023-03-24T00:32:36.281Z,33.1250
2023-03-24T00:32:47.373Z,33.1320
2023-03-24T00:32:58.470Z,33.1250
2023-03-24T00:33:09.561Z,33.1140
2023-03-24T00:33:20.605Z,33.1080
2023-03-24T00:33:31.694Z,33.0970
2023-03-24T00:33:42.740Z,33.1020
2023-03-24T00:33:54.046Z,33.0740
2023-03-24T00:34:05.369Z,33.1020
2023-03-24T00:34:16.416Z,33.0800
2023-03-24T00:34:27.467Z,33.0680
2023-03-24T00:34:38.680Z,33.0740
2023-03-24T00:34:49.742Z,33.0860
2023-03-24T00:35:00.791Z,33.0860
2023-03-24T00:35:11.850Z,33.0680
2023-03-24T00:35:22.898Z,33.0620
2023-03-24T00:35:33.958Z,33.0620
2023-03-24T00:35:45.058Z,33.0540
2023-03-24T00:35:56.156Z,33.0650
2023-03-24T00:36:07.243Z,33.0360
2023-03-24T00:36:18.349Z,33.0360
2023-03-24T00:36:29.459Z,33.0600
2023-03-24T00:36:40.493Z,33.0540
2023-03-24T00:36:51.566Z,33.0510
2023-03-24T00:37:02.608Z,33.0430
2023-03-24T00:37:13.667Z,33.0430
2023-03-24T00:37:24.720Z,33.0510
2023-03-24T00:37:35.722Z,33.0540
2023-03-24T00:37:46.754Z,33.0310
2023-03-24T00:37:57.852Z,33.0110
2023-03-24T00:38:08.882Z,33.0110
2023-03-24T00:38:19.928Z,32.9850
2023-03-24T00:38:30.995Z,32.9610
2023-03-24T00:38:42.060Z,32.9440
2023-03-24T00:38:53.119Z,32.9380
2023-03-24T00:39:04.150Z,32.9380
2023-03-24T00:39:15.190Z,32.9440
2023-03-24T00:39:26.222Z,32.9440
2023-03-24T00:39:37.251Z,32.9550
2023-03-24T00:39:48.307Z,32.9720
2023-03-24T00:39:59.358Z,32.9610
2023-03-24T00:40:10.413Z,32.9620
2023-03-24T00:40:21.522Z,32.9670
2023-03-24T00:40:32.612Z,32.9730
2023-03-24T00:40:43.998Z,32.9620
2023-03-24T00:40:55.286Z,32.9910
2023-03-24T00:41:06.342Z,32.9790
2023-03-24T00:41:17.347Z,32.9620
2023-03-24T00:41:28.426Z,32.9620
2023-03-24T00:41:39.499Z,32.9620
2023-03-24T00:41:50.586Z,32.9770
2023-03-24T00:42:01.683Z,32.9730
2023-03-24T00:42:12.722Z,32.9790
2023-03-24T00:42:23.771Z,32.9960
2023-03-24T00:42:34.828Z,32.9930
2023-03-24T00:42:45.890Z,33.0110
2023-03-24T00:42:56.983Z,33.0170
2023-03-24T00:43:08.052Z,33.0250
2023-03-24T00:43:19.068Z,33.0250
2023-03-24T00:43:30.130Z,33.0330
2023-03-24T00:43:41.180Z,33.0280
2023-03-24T00:43:52.230Z,33.0280
2023-03-24T00:44:03.302Z,33.0140
2023-03-24T00:44:14.400Z,33.0250
2023-03-24T00:44:25.448Z,33.0170
2023-03-24T00:44:36.509Z,33.0170
2023-03-24T00:44:47.577Z,33.0040
2023-03-24T00:44:58.591Z,32.9910
2023-03-24T00:45:09.656Z,32.9730
2023-03-24T00:45:20.739Z,32.9910
2023-03-24T00:45:31.784Z,32.9960
2023-03-24T00:45:42.820Z,33.0040
2023-03-24T00:45:53.878Z,33.0220
2023-03-24T00:46:04.932Z,33.0040
2023-03-24T00:46:15.958Z,33.0020
2023-03-24T00:46:27.024Z,32.9850
2023-03-24T00:46:38.094Z,32.9910
2023-03-24T00:46:49.140Z,32.9850
2023-03-24T00:47:00.249Z,32.9770
2023-03-24T00:47:11.357Z,32.9790
2023-03-24T00:47:22.412Z,32.9850
2023-03-24T00:47:33.450Z,32.9850
2023-03-24T00:47:44.560Z,32.9960
2023-03-24T00:47:55.620Z,33.0110
2023-03-24T00:48:06.719Z,33.0250
2023-03-24T00:48:17.809Z,33.0250
2023-03-24T00:48:28.894Z,33.0480
2023-03-24T00:48:39.908Z,33.0430
2023-03-24T00:48:50.959Z,33.0360
2023-03-24T00:49:01.994Z,33.0430
2023-03-24T00:49:13.034Z,33.0310
2023-03-24T00:49:24.071Z,33.0360
2023-03-24T00:49:35.122Z,33.0310
2023-03-24T00:49:46.160Z,33.0430
2023-03-24T00:49:57.214Z,33.0360
2023-03-24T00:50:08.294Z,33.0190
2023-03-24T00:50:19.341Z,33.0040
2023-03-24T00:50:30.380Z,33.0040
2023-03-24T00:50:41.428Z,32.9990
2023-03-24T00:50:52.485Z,32.9850
2023-03-24T00:51:03.519Z,32.9730
2023-03-24T00:51:14.575Z,32.9620
2023-03-24T00:51:25.619Z,32.9550
2023-03-24T00:51:36.683Z,32.9490
2023-03-24T00:51:47.749Z,32.9380
2023-03-24T00:51:58.784Z,32.9220
2023-03-24T00:52:09.829Z,32.9120
2023-03-24T00:52:20.989Z,32.9180
2023-03-24T00:52:32.060Z,32.9070
2023-03-24T00:52:43.114Z,32.8840
2023-03-24T00:52:54.140Z,32.8770
2023-03-24T00:53:05.206Z,32.8950
2023-03-24T00:53:16.227Z,32.8840
2023-03-24T00:53:27.313Z,32.9010
2023-03-24T00:53:38.379Z,32.9090
2023-03-24T00:53:49.442Z,32.9380
2023-03-24T00:54:00.508Z,32.9330
2023-03-24T00:54:11.589Z,32.9450
2023-03-24T00:54:22.629Z,32.9390
2023-03-24T00:54:33.679Z,32.9560
2023-03-24T00:54:44.706Z,32.9560
2023-03-24T00:54:55.750Z,32.9620
2023-03-24T00:55:06.776Z,32.9660
2023-03-24T00:55:17.859Z,32.9990
2023-03-24T00:55:29.086Z,33.0080
2023-03-24T00:55:40.400Z,33.0250
2023-03-24T00:55:51.468Z,33.0250
2023-03-24T00:56:02.519Z,33.0080
2023-03-24T00:56:13.579Z,33.0140
2023-03-24T00:56:24.639Z,33.0190
2023-03-24T00:56:36.078Z,33.0190
2023-03-24T00:56:47.216Z,33.0310
2023-03-24T00:56:58.318Z,33.0190
2023-03-24T00:57:09.380Z,33.0140
2023-03-24T00:57:20.420Z,33.0140
2023-03-24T00:57:31.490Z,33.0310
2023-03-24T00:57:42.568Z,33.0230
2023-03-24T00:57:53.608Z,33.0450
2023-03-24T00:58:04.670Z,33.0560
2023-03-24T00:58:15.724Z,33.0400
2023-03-24T00:58:26.790Z,33.0230
2023-03-24T00:58:37.882Z,33.0340
2023-03-24T00:58:48.930Z,33.0400
2023-03-24T00:58:59.948Z,33.0450
2023-03-24T00:59:11.187Z,33.0340
2023-03-24T00:59:22.481Z,33.0340
2023-03-24T00:59:33.547Z,33.0290
2023-03-24T00:59:44.571Z,33.0250
2023-03-24T00:59:55.630Z,33.0230
2023-03-24T01:00:06.676Z,33.0400
2023-03-24T01:00:17.699Z,33.0450
2023-03-24T01:00:28.797Z,33.0510
2023-03-24T01:00:39.893Z,33.0450
2023-03-24T01:00:50.971Z,33.0450
2023-03-24T01:01:02.132Z,33.0290
2023-03-24T01:01:13.212Z,33.0340
2023-03-24T01:01:24.338Z,33.0400
2023-03-24T01:01:35.758Z,33.0180
2023-03-24T01:01:46.896Z,33.0560
2023-03-24T01:01:57.993Z,33.0450
2023-03-24T01:02:09.043Z,33.0510
2023-03-24T01:02:20.101Z,33.0510
2023-03-24T01:02:31.179Z,33.0290
2023-03-24T01:02:42.336Z,33.0230
2023-03-24T01:02:53.395Z,33.0140
2023-03-24T01:03:04.931Z,33.0190
2023-03-24T01:03:16.007Z,32.9970
2023-03-24T01:03:27.054Z,32.9930
2023-03-24T01:03:38.145Z,32.9820
2023-03-24T01:03:49.248Z,32.9770
2023-03-24T01:04:00.295Z,32.9820
2023-03-24T01:04:11.325Z,32.9710
2023-03-24T01:04:22.367Z,32.9710
2023-03-24T01:04:33.419Z,32.9920
2023-03-24T01:04:44.467Z,33.0010
2023-03-24T01:04:55.538Z,33.0180
2023-03-24T01:05:06.615Z,33.0230
2023-03-24T01:05:17.672Z,33.0340
2023-03-24T01:05:28.767Z,33.0120
2023-03-24T01:05:39.778Z,33.0070
2023-03-24T01:05:50.838Z,33.0070
2023-03-24T01:06:03.172Z,33.0070
2023-03-24T01:06:15.638Z,33.1020
2023-03-24T01:06:26.725Z,33.0450
2023-03-24T01:06:37.786Z,33.0360
2023-03-24T01:06:48.847Z,33.0140
2023-03-24T01:06:59.910Z,33.0080
2023-03-24T01:07:10.966Z,32.9800
2023-03-24T01:07:22.022Z,32.9920
2023-03-24T01:07:33.036Z,32.9860
2023-03-24T01:07:44.097Z,32.9880
2023-03-24T01:07:55.129Z,32.9660
2023-03-24T01:08:06.200Z,32.9430
2023-03-24T01:08:17.237Z,32.9390
2023-03-24T01:08:28.285Z,32.9230
2023-03-24T01:08:39.400Z,32.9340
2023-03-24T01:08:50.430Z,32.9390
2023-03-24T01:09:01.493Z,32.9450
2023-03-24T01:09:12.578Z,32.9490
2023-03-24T01:09:23.638Z,32.9550
2023-03-24T01:09:34.665Z,32.9800
2023-03-24T01:09:45.726Z,32.9800
2023-03-24T01:09:56.765Z,32.9860
2023-03-24T01:10:07.866Z,32.9860
2023-03-24T01:10:18.900Z,32.9690
2023-03-24T01:10:29.971Z,32.9660
2023-03-24T01:10:41.008Z,32.9380
2023-03-24T01:10:52.068Z,32.9340
2023-03-24T01:11:03.122Z,32.9230
2023-03-24T01:11:14.161Z,32.9170
2023-03-24T01:11:25.189Z,32.9450
2023-03-24T01:11:36.232Z,32.9340
2023-03-24T01:11:47.276Z,32.9390
2023-03-24T01:11:58.342Z,32.9280
2023-03-24T01:12:09.402Z,32.9270
2023-03-24T01:12:20.462Z,32.9270
2023-03-24T01:12:31.507Z,32.9150
2023-03-24T01:12:42.530Z,32.9170
2023-03-24T01:12:53.574Z,32.9170
2023-03-24T01:13:04.642Z,32.9340
2023-03-24T01:13:15.697Z,32.9340
2023-03-24T01:13:26.772Z,32.9340
2023-03-24T01:13:37.826Z,32.9280
2023-03-24T01:13:48.898Z,32.9090
2023-03-24T01:13:59.958Z,32.9040
2023-03-24T01:14:11.031Z,32.9090
2023-03-24T01:14:22.104Z,32.9220
2023-03-24T01:14:33.161Z,32.8980
2023-03-24T01:14:44.175Z,32.9040
2023-03-24T01:14:55.217Z,32.9090
2023-03-24T01:15:06.290Z,32.9090
2023-03-24T01:15:17.368Z,32.9040
2023-03-24T01:15:28.413Z,32.8760
2023-03-24T01:15:39.445Z,32.8710
2023-03-24T01:15:50.527Z,32.8500
2023-03-24T01:16:01.624Z,32.8500
2023-03-24T01:16:12.670Z,32.8550
2023-03-24T01:16:23.738Z,32.8610
2023-03-24T01:16:34.830Z,32.8930
2023-03-24T01:16:45.899Z,32.9150
2023-03-24T01:16:56.938Z,32.9490
2023-03-24T01:17:07.999Z,32.9390
2023-03-24T01:17:19.023Z,32.9450
2023-03-24T01:17:30.103Z,32.9500
2023-03-24T01:17:41.166Z,32.9380
2023-03-24T01:17:52.241Z,32.9490
2023-03-24T01:18:03.303Z,32.9490
2023-03-24T01:18:14.346Z,32.9440
2023-03-24T01:18:25.400Z,32.9490
2023-03-24T01:18:36.437Z,32.9380
2023-03-24T01:18:47.506Z,32.9440
2023-03-24T01:18:58.605Z,32.9380
2023-03-24T01:19:09.655Z,32.9400
2023-03-24T01:19:21.092Z,32.9240
2023-03-24T01:19:32.141Z,32.9280
2023-03-24T01:19:43.183Z,32.9120
2023-03-24T01:19:54.236Z,32.9310
2023-03-24T01:20:05.299Z,32.9190
2023-03-24T01:20:16.354Z,32.9190
2023-03-24T01:20:27.398Z,32.9060
2023-03-24T01:20:38.424Z,32.9030
2023-03-24T01:20:49.591Z,32.9080
2023-03-24T01:21:00.656Z,32.9230
2023-03-24T01:21:11.720Z,32.9570
2023-03-24T01:21:22.790Z,32.9660
2023-03-24T01:21:33.848Z,32.9830
2023-03-24T01:21:44.909Z,32.9880
2023-03-24T01:21:55.958Z,32.9880
2023-03-24T01:22:07.009Z,33.0010
2023-03-24T01:22:18.049Z,33.0290
2023-03-24T01:22:29.063Z,33.0350
2023-03-24T01:22:40.167Z,33.0590
2023-03-24T01:22:51.223Z,33.0520
2023-03-24T01:23:02.287Z,33.0590
2023-03-24T01:23:13.314Z,33.0510
2023-03-24T01:23:24.363Z,33.0340
2023-03-24T01:23:35.418Z,33.0170
2023-03-24T01:23:46.472Z,33.0120
2023-03-24T01:23:57.522Z,33.0120
2023-03-24T01:24:08.613Z,33.0170
2023-03-24T01:24:19.652Z,33.0080
2023-03-24T01:24:30.711Z,33.0190
2023-03-24T01:24:41.754Z,33.0020
2023-03-24T01:24:52.865Z,33.0020
2023-03-24T01:25:03.901Z,33.0300
2023-03-24T01:25:14.968Z,33.0130
2023-03-24T01:25:25.990Z,33.0250
2023-03-24T01:25:37.037Z,33.0250
2023-03-24T01:25:48.065Z,33.0300
2023-03-24T01:25:59.137Z,33.0480
2023-03-24T01:26:10.182Z,33.0450
2023-03-24T01:26:21.244Z,33.0670
2023-03-24T01:26:32.311Z,33.0620
2023-03-24T01:26:43.357Z,33.0620
2023-03-24T01:26:54.404Z,33.0730
2023-03-24T01:27:05.458Z,33.0800
2023-03-24T01:27:16.505Z,33.0670
2023-03-24T01:27:27.573Z,33.0850
2023-03-24T01:27:38.621Z,33.0800
2023-03-24T01:27:49.658Z,33.0850
2023-03-24T01:28:00.703Z,33.0800
2023-03-24T01:28:11.751Z,33.0910
2023-03-24T01:28:22.769Z,33.1130
2023-03-24T01:28:33.827Z,33.1310
2023-03-24T01:28:44.878Z,33.1370
2023-03-24T01:28:55.926Z,33.1490
2023-03-24T01:29:06.989Z,33.1430
2023-03-24T01:29:18.095Z,33.1490
2023-03-24T01:29:29.153Z,33.1540
2023-03-24T01:29:40.161Z,33.1540
2023-03-24T01:29:51.191Z,33.1520
2023-03-24T01:30:02.262Z,33.1300
2023-03-24T01:30:13.311Z,33.1130
2023-03-24T01:30:24.327Z,33.1040
2023-03-24T01:30:35.387Z,33.1040
2023-03-24T01:30:46.699Z,33.0930
2023-03-24T01:30:57.866Z,33.1200
2023-03-24T01:31:09.018Z,33.0930
2023-03-24T01:31:20.082Z,33.0750
2023-03-24T01:31:31.139Z,33.0810
2023-03-24T01:31:42.274Z,33.0860
2023-03-24T01:31:53.339Z,33.0920
2023-03-24T01:32:04.476Z,33.1040
2023-03-24T01:32:15.633Z,33.1270
2023-03-24T01:32:26.758Z,33.1140
2023-03-24T01:32:37.937Z,33.1240
2023-03-24T01:32:49.086Z,33.1460
2023-03-24T01:33:00.162Z,33.1520
2023-03-24T01:33:11.193Z,33.1710
2023-03-24T01:33:22.219Z,33.1820
2023-03-24T01:33:33.275Z,33.1870
2023-03-24T01:33:44.319Z,33.1980
2023-03-24T01:33:55.361Z,33.1930
2023-03-24T01:34:06.408Z,33.1870
2023-03-24T01:34:17.550Z,33.2040
2023-03-24T01:34:28.641Z,33.2020
2023-03-24T01:34:39.684Z,33.2140
2023-03-24T01:34:50.731Z,33.2090
2023-03-24T01:35:01.809Z,33.2280
2023-03-24T01:35:12.842Z,33.2040
2023-03-24T01:35:23.905Z,33.2040
2023-03-24T01:35:34.970Z,33.1980
2023-03-24T01:35:46.042Z,33.1930
2023-03-24T01:35:57.115Z,33.1920
2023-03-24T01:36:08.184Z,33.1970
2023-03-24T01:36:19.272Z,33.1970
2023-03-24T01:36:30.341Z,33.2080
2023-03-24T01:36:41.398Z,33.2140
2023-03-24T01:36:52.442Z,33.2090
2023-03-24T01:37:03.485Z,33.2040
2023-03-24T01:37:14.550Z,33.2220
2023-03-24T01:37:25.615Z,33.2200
2023-03-24T01:37:36.662Z,33.2080
2023-03-24T01:37:47.729Z,33.2030
2023-03-24T01:37:58.796Z,33.2030
2023-03-24T01:38:09.827Z,33.1970
2023-03-24T01:38:20.867Z,33.2030
2023-03-24T01:38:31.900Z,33.1990
2023-03-24T01:38:42.986Z,33.1940
2023-03-24T01:38:54.028Z,33.1770
2023-03-24T01:39:05.079Z,33.1770
2023-03-24T01:39:16.135Z,33.1770
2023-03-24T01:39:27.169Z,33.1600
2023-03-24T01:39:38.251Z,33.1650
2023-03-24T01:39:49.321Z,33.1830
2023-03-24T01:40:00.375Z,33.1830
2023-03-24T01:40:11.430Z,33.1830
2023-03-24T01:40:22.473Z,33.1770
2023-03-24T01:40:33.517Z,33.1710
2023-03-24T01:40:44.680Z,33.1650
2023-03-24T01:40:55.779Z,33.1650
2023-03-24T01:41:06.808Z,33.1710
2023-03-24T01:41:17.859Z,33.1650
2023-03-24T01:41:28.911Z,33.1880
2023-03-24T01:41:41.929Z,33.1940
2023-03-24T01:41:53.567Z,33.2780
2023-03-24T01:42:04.604Z,33.2390
2023-03-24T01:42:15.664Z,33.2340
2023-03-24T01:42:26.732Z,33.2110
2023-03-24T01:42:37.787Z,33.2110
2023-03-24T01:42:48.842Z,33.2110
2023-03-24T01:42:59.906Z,33.2230
2023-03-24T01:43:10.953Z,33.2110
2023-03-24T01:43:22.016Z,33.1930
2023-03-24T01:43:33.062Z,33.1870
2023-03-24T01:43:44.104Z,33.1790
2023-03-24T01:43:55.160Z,33.1810
2023-03-24T01:44:06.194Z,33.1760
2023-03-24T01:44:17.250Z,33.1870
2023-03-24T01:44:28.314Z,33.1870
2023-03-24T01:44:39.444Z,33.1920
2023-03-24T01:44:50.470Z,33.1810
2023-03-24T01:45:01.535Z,33.1830
2023-03-24T01:45:12.558Z,33.1830
2023-03-24T01:45:23.632Z,33.1890
2023-03-24T01:45:34.685Z,33.1890
2023-03-24T01:45:45.747Z,33.2120
2023-03-24T01:45:56.801Z,33.1890
2023-03-24T01:46:08.200Z,33.1830
2023-03-24T01:46:19.511Z,33.2000
2023-03-24T01:46:30.584Z,33.1920
2023-03-24T01:46:41.603Z,33.2140
2023-03-24T01:46:52.664Z,33.2070
2023-03-24T01:47:03.728Z,33.2060
2023-03-24T01:47:14.784Z,33.2230
2023-03-24T01:47:25.855Z,33.2340
2023-03-24T01:47:36.888Z,33.2430
2023-03-24T01:47:47.986Z,33.2390
2023-03-24T01:47:59.064Z,33.2500
2023-03-24T01:48:10.116Z,33.2390
2023-03-24T01:48:21.161Z,33.2340
2023-03-24T01:48:32.223Z,33.2390
2023-03-24T01:48:43.284Z,33.2500
2023-03-24T01:48:54.344Z,33.2560
2023-03-24T01:49:05.416Z,33.2650
2023-03-24T01:49:16.451Z,33.2710
2023-03-24T01:49:27.496Z,33.2880
2023-03-24T01:49:38.557Z,33.2820
2023-03-24T01:49:49.626Z,33.2930
2023-03-24T01:50:00.653Z,33.2820
2023-03-24T01:50:11.703Z,33.2880
2023-03-24T01:50:22.752Z,33.2820
2023-03-24T01:50:33.831Z,33.2880
2023-03-24T01:50:45.018Z,33.2770
2023-03-24T01:50:56.123Z,33.2930
2023-03-24T01:51:07.185Z,33.2930
2023-03-24T01:51:18.242Z,33.3120
2023-03-24T01:51:29.295Z,33.3120
2023-03-24T01:51:40.352Z,33.3170
2023-03-24T01:51:51.398Z,33.3100
2023-03-24T01:52:02.446Z,33.3170
2023-03-24T01:52:13.495Z,33.3220
2023-03-24T01:52:24.543Z,33.3220
2023-03-24T01:52:35.613Z,33.3180
2023-03-24T01:52:46.680Z,33.3340
2023-03-24T01:52:57.712Z,33.3230
2023-03-24T01:53:08.775Z,33.3290
2023-03-24T01:53:19.804Z,33.3340
2023-03-24T01:53:30.932Z,33.3400
2023-03-24T01:53:42.031Z,33.3290
2023-03-24T01:53:53.048Z,33.3380
2023-03-24T01:54:04.076Z,33.3550
2023-03-24T01:54:15.128Z,33.3550
2023-03-24T01:54:26.155Z,33.3610
2023-03-24T01:54:37.246Z,33.3830
2023-03-24T01:54:48.275Z,33.3870
2023-03-24T01:54:59.359Z,33.4030
2023-03-24T01:55:10.428Z,33.4090
2023-03-24T01:55:21.468Z,33.3940
2023-03-24T01:55:32.500Z,33.4060
2023-03-24T01:55:43.578Z,33.3830
2023-03-24T01:55:54.617Z,33.3720
2023-03-24T01:56:05.663Z,33.3720
2023-03-24T01:56:16.724Z,33.3750
2023-03-24T01:56:27.822Z,33.3550
2023-03-24T01:56:38.879Z,33.3610
2023-03-24T01:56:49.937Z,33.3570
2023-03-24T01:57:00.959Z,33.3510
2023-03-24T01:57:12.000Z,33.3230
2023-03-24T01:57:23.058Z,33.3330
2023-03-24T01:57:34.089Z,33.3280
2023-03-24T01:57:45.145Z,33.3280
2023-03-24T01:57:56.194Z,33.3510
2023-03-24T01:58:07.304Z,33.3660
2023-03-24T01:58:18.377Z,33.3880
2023-03-24T01:58:29.439Z,33.3660
2023-03-24T01:58:40.473Z,33.3680
2023-03-24T01:58:51.526Z,33.3570
2023-03-24T01:59:02.566Z,33.3450
2023-03-24T01:59:13.662Z,33.3400
2023-03-24T01:59:24.718Z,33.3400
2023-03-24T01:59:35.754Z,33.3570
2023-03-24T01:59:46.790Z,33.3610
2023-03-24T01:59:57.825Z,33.3720
2023-03-24T02:00:08.902Z,33.3660
2023-03-24T02:00:19.969Z,33.3570
2023-03-24T02:00:31.006Z,33.3450
2023-03-24T02:00:42.247Z,33.3450
2023-03-24T02:00:53.442Z,33.3510
2023-03-24T02:01:04.470Z,33.3330
2023-03-24T02:01:15.561Z,33.3280
2023-03-24T02:01:26.689Z,33.3400
2023-03-24T02:01:37.747Z,33.3620
2023-03-24T02:01:48.793Z,33.3720
2023-03-24T02:01:59.842Z,33.3870
2023-03-24T02:02:10.917Z,33.3920
2023-03-24T02:02:22.013Z,33.3810
2023-03-24T02:02:33.088Z,33.3880
2023-03-24T02:02:44.176Z,33.4060
2023-03-24T02:02:55.310Z,33.3880
2023-03-24T02:03:06.400Z,33.3880
2023-03-24T02:03:17.421Z,33.3830
2023-03-24T02:03:28.485Z,33.3770
2023-03-24T02:03:39.562Z,33.3720
2023-03-24T02:03:50.637Z,33.3830
2023-03-24T02:04:01.699Z,33.3830
2023-03-24T02:04:12.852Z,33.3870
2023-03-24T02:04:23.989Z,33.4140
2023-03-24T02:04:35.034Z,33.4200
2023-03-24T02:04:46.076Z,33.4290
2023-03-24T02:04:57.125Z,33.4410
2023-03-24T02:05:08.185Z,33.4460
2023-03-24T02:05:19.295Z,33.4460
2023-03-24T02:05:30.363Z,33.4350
2023-03-24T02:05:41.425Z,33.4350
2023-03-24T02:05:52.518Z,33.4240
2023-03-24T02:06:03.556Z,33.4030
2023-03-24T02:06:14.590Z,33.3980
2023-03-24T02:06:25.631Z,33.3870
2023-03-24T02:06:36.666Z,33.3870
2023-03-24T02:06:47.710Z,33.3870
2023-03-24T02:06:58.758Z,33.3870
2023-03-24T02:07:09.807Z,33.3920
2023-03-24T02:07:20.872Z,33.4070
2023-03-24T02:07:31.926Z,33.4240
2023-03-24T02:07:42.950Z,33.4460
2023-03-24T02:07:53.997Z,33.4520
2023-03-24T02:08:05.044Z,33.4590
2023-03-24T02:08:16.125Z,33.4710
2023-03-24T02:08:27.164Z,33.4760
2023-03-24T02:08:38.226Z,33.4540
2023-03-24T02:08:49.253Z,33.4630
2023-03-24T02:09:00.319Z,33.4410
2023-03-24T02:09:11.353Z,33.4410
2023-03-24T02:09:22.407Z,33.4240
2023-03-24T02:09:33.455Z,33.4350
2023-03-24T02:09:44.524Z,33.4240
2023-03-24T02:09:55.577Z,33.4130
2023-03-24T02:10:06.619Z,33.4180
2023-03-24T02:10:17.694Z,33.4180
2023-03-24T02:10:28.765Z,33.4410
2023-03-24T02:10:39.825Z,33.4630
2023-03-24T02:10:50.874Z,33.4590
2023-03-24T02:11:01.967Z,33.4710
2023-03-24T02:11:13.005Z,33.4540
2023-03-24T02:11:24.095Z,33.4590
2023-03-24T02:11:35.162Z,33.4650
2023-03-24T02:11:46.217Z,33.4590
2023-03-24T02:11:57.258Z,33.4620
2023-03-24T02:12:08.299Z,33.4980
2023-03-24T02:12:19.353Z,33.5030
2023-03-24T02:12:30.406Z,33.5180
2023-03-24T02:12:41.502Z,33.5030
2023-03-24T02:12:52.578Z,33.4680
2023-03-24T02:13:03.585Z,33.4480
2023-03-24T02:13:14.624Z,33.4250
2023-03-24T02:13:25.668Z,33.4410
2023-03-24T02:13:36.703Z,33.4130
2023-03-24T02:13:47.762Z,33.3840
2023-03-24T02:13:58.825Z,33.3870
2023-03-24T02:14:09.868Z,33.3520
2023-03-24T02:14:20.929Z,33.3330